Flight Track Log - Related Links

Times and Time Zones

All times are in EDT time to prevent confusion due to time zone crossing. See the N717AN flight status page for this flight to view local times or setup timezone preferences in your user account.

Time Position Orientation Groundspeed Altitude Reporting Facility
EDT Latitude Longitude Course Direction KTS MPH feet Rate Location/Type
Fri 05:04:06 AM 51.4648 -0.4443 90° East 196 226 200  Level FlightAware ADS-B
Fri 05:04:13 AM 51.4648 -0.4347 91° East 196 226 500 2,400 Climbing FlightAware ADS-B (EGLL / LHR)
Fri 05:04:21 AM 51.4646 -0.4268 91° East 197 227 800 2,769 Climbing FlightAware ADS-B
Fri 05:04:26 AM 51.4639 -0.4148 97° East 203 234 1,100 2,667 Climbing FlightAware ADS-B
Fri 05:04:30 AM 51.4637 -0.4131 96° East 203 234 1,200 3,600 Climbing FlightAware ADS-B (EGLL / LHR)
Fri 05:04:31 AM 51.4627 -0.4077 107° East 203 234 1,400 4,286 Climbing FlightAware ADS-B
Fri 05:04:37 AM 51.4613 -0.4029 110° East 203 234 1,700 3,000 Climbing FlightAware ADS-B
Fri 05:04:41 AM 51.4586 -0.3966 125° Southeast 205 236 1,900 3,000 Climbing FlightAware ADS-B
Fri 05:04:45 AM 51.4554 -0.3917 138° Southeast 210 242 2,100 2,400 Climbing FlightAware ADS-B (EGLL / LHR)
Fri 05:04:46 AM 51.4542 -0.3902 139° Southeast 210 242 2,100 3,000 Level FlightAware ADS-B
Fri 05:04:49 AM 51.4523 -0.3882 147° Southeast 213 245 2,300 3,600 Climbing FlightAware ADS-B (EGLF / FAB)
Fri 05:04:56 AM 51.4445 -0.3839 166° South 219 252 2,700 3,000 Climbing FlightAware ADS-B
Fri 05:04:57 AM 51.4440 -0.3836 167° South 219 252 2,700 2,400 Level FlightAware ADS-B
Fri 05:05:01 AM 51.4404 -0.3831 173° South 219 252 2,900 3,750 Climbing FlightAware ADS-B (EGLL / LHR)
Fri 05:05:05 AM 51.4353 -0.3838 184° South 220 253 3,200 3,600 Climbing FlightAware ADS-B
Fri 05:05:06 AM 51.4353 -0.3838 186° South 220 253 3,200 3,000 Level FlightAware ADS-B
Fri 05:05:09 AM 51.4314 -0.3853 192° South 221 254 3,400 3,000 Climbing FlightAware ADS-B
Fri 05:05:10 AM 51.4334 -0.3844 192° South 221 254 3,400  Level FlightAware ADS-B (EGLF / FAB)
Fri 05:05:11 AM 51.4314 -0.3853 197° South 222 255 3,400 3,000 Level FlightAware ADS-B
Fri 05:05:14 AM 51.4268 -0.3883 201° Southwest 225 259 3,600 4,500 Climbing FlightAware ADS-B
Fri 05:05:15 AM 51.4272 -0.3878 205° Southwest 226 260 3,700 3,000 Climbing FlightAware ADS-B (EGLL / LHR)
Fri 05:05:16 AM 51.4259 -0.3889 205° Southwest 225 259 3,700  Level FlightAware ADS-B
Fri 05:05:17 AM 51.4240 -0.3905 206° Southwest 225 259 3,700 2,400 Level FlightAware ADS-B
Fri 05:05:21 AM 51.4207 -0.3937 211° Southwest 227 261 3,900 3,000 Climbing FlightAware ADS-B
Fri 05:05:23 AM 51.4192 -0.3953 212° Southwest 228 262 4,000 3,000 Climbing FlightAware ADS-B (EGLC / LCY)
Fri 05:05:27 AM 51.4149 -0.4001 215° Southwest 233 268 4,200 1,500 Climbing FlightAware ADS-B
Fri 05:05:31 AM 51.4156 -0.3992 215° Southwest 234 269 4,200 1,714 Level FlightAware ADS-B (EGLL / LHR)
Fri 05:05:34 AM 51.4094 -0.4066 217° Southwest 240 276 4,400 2,400 Climbing FlightAware ADS-B
Fri 05:05:36 AM 51.4071 -0.4094 218° Southwest 243 280 4,400 1,385 Level FlightAware ADS-B
Fri 05:05:47 AM 51.3974 -0.4225 221° Southwest 256 295 4,700 2,000 Climbing FlightAware ADS-B
Fri 05:05:51 AM 51.3941 -0.4275 223° Southwest 260 299 4,900 2,571 Climbing FlightAware ADS-B
Fri 05:05:54 AM 51.3916 -0.4320 227° Southwest 263 303 5,000 2,400 Climbing FlightAware ADS-B
Fri 05:05:56 AM 51.3896 -0.4359 230° Southwest 265 305 5,100 2,000 Climbing FlightAware ADS-B
Fri 05:05:57 AM 51.3892 -0.4366 230° Southwest 265 305 5,100 3,000 Level FlightAware ADS-B
Fri 05:06:00 AM 51.3868 -0.4422 233° Southwest 269 310 5,300 3,000 Climbing FlightAware ADS-B
Fri 05:06:01 AM 51.3868 -0.4422 235° Southwest 269 310 5,300 1,500 Level FlightAware ADS-B
Fri 05:06:04 AM 51.3845 -0.4481 238° Southwest 273 314 5,400 2,400 Climbing FlightAware ADS-B
Fri 05:06:06 AM 51.3837 -0.4506 241° Southwest 274 315 5,500 1,714 Climbing FlightAware ADS-B
Fri 05:06:11 AM 51.3805 -0.4615 243° Southwest 280 322 5,600 2,000 Climbing FlightAware ADS-B (EGLC / LCY)
Fri 05:06:12 AM 51.3799 -0.4638 246° West 282 325 5,700 2,400 Climbing FlightAware ADS-B
Fri 05:06:16 AM 51.3778 -0.4719 248° West 286 329 5,800 1,500 Climbing FlightAware ADS-B
Fri 05:06:20 AM 51.3763 -0.4786 251° West 288 331 5,900 2,571 Climbing FlightAware ADS-B
Fri 05:06:23 AM 51.3752 -0.4850 254° West 289 333 6,100 3,600 Climbing FlightAware ADS-B (EGKK / LGW)
Fri 05:06:25 AM 51.3744 -0.4900 255° West 288 331 6,200 2,571 Climbing FlightAware ADS-B
Fri 05:06:30 AM 51.3733 -0.4994 259° West 289 333 6,400 2,000 Climbing FlightAware ADS-B
Fri 05:06:31 AM 51.3731 -0.5007 261° West 289 333 6,400 1,200 Level FlightAware ADS-B
Fri 05:06:35 AM 51.3724 -0.5112 264° West 292 336 6,500 2,250 Climbing FlightAware ADS-B
Fri 05:06:39 AM 51.3727 -0.5060 269° West 297 342 6,700 2,400 Climbing FlightAware ADS-B (EGLF / FAB)
Fri 05:06:40 AM 51.3723 -0.5218 269° West 297 342 6,700  Level FlightAware ADS-B
Fri 05:06:41 AM 51.3723 -0.5207 269° West 297 342 6,700 2,000 Level FlightAware ADS-B
Fri 05:06:43 AM 51.3726 -0.5296 273° West 301 346 6,800 2,000 Climbing FlightAware ADS-B
Fri 05:06:47 AM 51.3732 -0.5367 277° West 302 348 6,900 2,250 Climbing FlightAware ADS-B
Fri 05:06:51 AM 51.3745 -0.5452 282° West 304 350 7,100 3,000 Climbing FlightAware ADS-B
Fri 05:06:53 AM 51.3753 -0.5502 267° West 296 341 7,200 3,000 Climbing FlightAware ADS-B (EGHI / SOU)
Fri 05:06:55 AM 51.3759 -0.5533 286° West 304 350 7,300 3,000 Climbing FlightAware ADS-B
Fri 05:06:57 AM 51.3772 -0.5601 288° West 303 349 7,400 2,500 Climbing FlightAware ADS-B
Fri 05:07:07 AM 51.3816 -0.5786 291° West 297 342 7,800 2,143 Climbing FlightAware ADS-B (EGLC / LCY)
Fri 05:07:11 AM 51.3838 -0.5881 291° West 297 342 7,900 1,600 Climbing FlightAware ADS-B
Fri 05:07:22 AM 51.3898 -0.6114 293° West 307 353 8,200 1,600 Climbing FlightAware ADS-B
Fri 05:07:26 AM 51.3917 -0.6184 294° West 309 356 8,300 2,400 Climbing FlightAware ADS-B
Fri 05:07:32 AM 51.3937 -0.6258 292° West 308 354 8,600 3,000 Climbing FlightAware ADS-B
Fri 05:07:38 AM 51.3989 -0.6449 294° West 313 360 8,900 3,333 Climbing FlightAware ADS-B
Fri 05:07:41 AM 51.4004 -0.6504 294° West 313 360 9,100 3,857 Climbing FlightAware ADS-B
Fri 05:07:52 AM 51.4055 -0.6696 293° West 308 354 9,800 4,000 Climbing FlightAware ADS-B (EGLL / LHR)
Fri 05:07:53 AM 51.4075 -0.6768 293° West 307 353 9,900 6,000 Climbing FlightAware ADS-B
Fri 05:07:55 AM 51.4085 -0.6808 292° West 309 356 10,100 3,529 Climbing FlightAware ADS-B (EGHI / SOU)
Fri 05:08:10 AM 51.4169 -0.7118 291° West 304 350 10,900 3,000 Climbing FlightAware ADS-B (EGHH / BOH)
Fri 05:08:13 AM 51.4180 -0.7162 291° West 305 351 11,000 1,385 Climbing FlightAware ADS-B (EGKK / LGW)
Fri 05:08:23 AM 51.4228 -0.7346 291° West 314 361 11,200 1,636 Climbing FlightAware ADS-B (EGKK / LGW)
Fri 05:08:24 AM 51.4243 -0.7405 293° West 317 365 11,300 2,000 Climbing FlightAware ADS-B
Fri 05:08:26 AM 51.4258 -0.7458 293° West 322 371 11,300 1,200 Level FlightAware ADS-B
Fri 05:08:34 AM 51.4300 -0.7631 291° West 330 380 11,500 1,385 Climbing FlightAware ADS-B
Fri 05:08:39 AM 51.4322 -0.7752 286° West 336 387 11,600 1,500 Climbing FlightAware ADS-B
Fri 05:08:46 AM 51.4339 -0.7893 280° West 341 392 11,800 1,500 Climbing FlightAware ADS-B
Fri 05:08:47 AM 51.4345 -0.7966 278° West 344 396 11,800 1,000 Level FlightAware ADS-B
Fri 05:08:52 AM 51.4354 -0.8093 275° West 348 400 11,900 1,263 Climbing FlightAware ADS-B (EGHI / SOU)
Fri 05:09:06 AM 51.4374 -0.8454 275° West 363 418 12,200 1,750 Climbing FlightAware ADS-B (EGLL / LHR)
Fri 05:09:16 AM 51.4384 -0.8657 275° West 366 421 12,600 2,500 Climbing FlightAware ADS-B
Fri 05:09:18 AM 51.4389 -0.8765 274° West 368 423 12,700 4,000 Climbing FlightAware ADS-B
Fri 05:09:19 AM 51.4388 -0.8752 274° West 370 426 12,800 2,667 Climbing FlightAware ADS-B (EGHA)
Fri 05:09:27 AM 51.4400 -0.9011 273° West 372 428 13,100 2,069 Climbing FlightAware ADS-B (KSCH)
Fri 05:09:48 AM 51.4433 -0.9613 275° West 384 442 13,800 1,800 Climbing FlightAware ADS-B
Fri 05:09:57 AM 51.4447 -0.9848 276° West 387 445 14,000 3,097 Climbing FlightAware ADS-B (EGHI / SOU)
Fri 05:10:19 AM 51.4486 -1.0492 276° West 379 436 15,400 3,677 Climbing FlightAware ADS-B
Fri 05:10:28 AM 51.4499 -1.0703 276° West 376 433 15,900 3,636 Climbing FlightAware ADS-B (EGKK / LGW)
Fri 05:10:52 AM 51.4540 -1.1383 275° West 369 425 17,400 3,220 Climbing FlightAware ADS-B
Fri 05:11:09 AM 51.4568 -1.1839 276° West 372 428 18,100 2,400 Climbing FlightAware ADS-B
Fri 05:11:22 AM 51.4591 -1.2209 275° West 377 434 18,600 2,308 Climbing FlightAware ADS-B
Fri 05:11:35 AM 51.4617 -1.2565 278° West 380 437 19,100 2,400 Climbing FlightAware ADS-B
Fri 05:11:37 AM 51.4622 -1.2604 281° West 382 440 19,200 1,500 Climbing FlightAware ADS-B (EGLL / LHR)
Fri 05:11:39 AM 51.4630 -1.2665 281° West 382 440 19,200 1,500 Level FlightAware ADS-B
Fri 05:11:45 AM 51.4665 -1.2857 287° West 386 444 19,400 2,250 Climbing FlightAware ADS-B
Fri 05:11:47 AM 51.4660 -1.2832 288° West 386 444 19,500 2,571 Climbing FlightAware ADS-B
Fri 05:11:59 AM 51.4761 -1.3226 294° West 391 450 20,000 2,195 Climbing FlightAware ADS-B
Fri 05:12:28 AM 51.4975 -1.3959 294° West 393 452 21,000 2,129 Climbing FlightAware ADS-B (EGKK / LGW)
Fri 05:12:30 AM 51.4995 -1.4028 295° West 397 457 21,100 2,400 Climbing FlightAware ADS-B
Fri 05:12:38 AM 51.5058 -1.4241 294° West 395 455 21,400 2,471 Climbing FlightAware ADS-B (EGHI / SOU)
Fri 05:12:47 AM 51.5132 -1.4489 296° West 400 460 21,800 2,571 Climbing FlightAware ADS-B
Fri 05:12:52 AM 51.5172 -1.4626 295° West 398 458 22,000 1,500 Climbing FlightAware ADS-B (EGLC / LCY)
Fri 05:12:59 AM 51.5198 -1.4711 296° West 402 463 22,100 1,500 Climbing FlightAware ADS-B (EGLF / FAB)
Fri 05:13:00 AM 51.5236 -1.4840 295° West 402 463 22,200 3,000 Climbing FlightAware ADS-B
Fri 05:13:05 AM 51.5264 -1.4935 295° West 403 464 22,400 2,250 Climbing FlightAware ADS-B
Fri 05:13:08 AM 51.5276 -1.4973 295° West 404 465 22,500 2,000 Climbing FlightAware ADS-B
Fri 05:13:23 AM 51.5424 -1.5478 294° West 404 465 23,000 1,826 Climbing FlightAware ADS-B (EGHH / BOH)
Fri 05:13:31 AM 51.5484 -1.5680 295° West 408 470 23,200 1,000 Climbing FlightAware ADS-B
Fri 05:13:53 AM 51.5655 -1.6260 295° West 424 488 23,500 774 Climbing FlightAware ADS-B (EGLL / LHR)
Fri 05:14:02 AM 51.5744 -1.6562 295° West 430 495 23,600 800 Climbing FlightAware ADS-B
Fri 05:14:08 AM 51.5783 -1.6695 294° West 430 495 23,700 923 Climbing FlightAware ADS-B (EGKK / LGW)
Fri 05:14:15 AM 51.5851 -1.6928 294° West 439 505 23,800 857 Climbing FlightAware ADS-B (LKVR)
Fri 05:14:22 AM 51.5827 -1.6845 295° West 442 509 23,900 1,059 Climbing FlightAware ADS-B (EGHA)
Fri 05:14:32 AM 51.6007 -1.7461 295° West 451 519 24,100 1,200 Climbing FlightAware ADS-B
Fri 05:14:52 AM 51.6178 -1.8042 295° West 459 528 24,500 1,826 Climbing FlightAware ADS-B (EGHH / BOH)
Fri 05:14:55 AM 51.6170 -1.8015 296° West 459 528 24,800 2,143 Climbing FlightAware ADS-B (EGLF / FAB)
Fri 05:15:06 AM 51.6310 -1.8484 296° West 461 531 25,000 923 Climbing FlightAware ADS-B
Fri 05:15:08 AM 51.6325 -1.8534 295° West 458 527 25,000 1,333 Level FlightAware ADS-B (EGKK / LGW)
Fri 05:15:15 AM 51.6383 -1.8725 295° West 459 528 25,200 2,250 Climbing FlightAware ADS-B (EGKK / LGW)
Fri 05:15:24 AM 51.6481 -1.9047 296° West 465 535 25,600 1,500 Climbing FlightAware ADS-B
Fri 05:15:39 AM 51.6619 -1.9500 296° West 470 541 25,800 774 Climbing FlightAware ADS-B
Fri 05:15:55 AM 51.6752 -1.9935 296° West 481 554 26,000 1,161 Climbing FlightAware ADS-B
Fri 05:16:10 AM 51.6932 -2.0518 296° West 485 558 26,400 1,500 Climbing FlightAware ADS-B
Fri 05:16:27 AM 51.7100 -2.1064 296° West 486 559 26,800 1,429 Climbing FlightAware ADS-B (EGHH / BOH)
Fri 05:16:31 AM 51.7139 -2.1187 296° West 486 559 26,900 2,143 Climbing FlightAware ADS-B (LKVR)
Fri 05:16:41 AM 51.7236 -2.1500 297° West 490 564 27,300 2,471 Climbing FlightAware ADS-B
Fri 05:16:48 AM 51.7315 -2.1755 296° West 486 559 27,600 2,143 Climbing FlightAware ADS-B
Fri 05:16:55 AM 51.7385 -2.1976 296° West 487 560 27,800 828 Climbing FlightAware ADS-B (EGHH / BOH)
Fri 05:17:17 AM 51.7606 -2.2682 297° West 498 573 28,000 400 Climbing FlightAware ADS-B
Fri 05:17:25 AM 51.7682 -2.2925 297° West 500 575 28,000  Level FlightAware ADS-B (EGLC / LCY)
Fri 05:17:33 AM 51.7768 -2.3228 294° West 499 574 28,000  Level FlightAware ADS-B
Fri 05:17:36 AM 51.7794 -2.3338 291° West 497 572 28,000  Level FlightAware ADS-B (EGHH / BOH)
Fri 05:17:48 AM 51.7869 -2.3705 289° West 496 571 28,000  Level FlightAware ADS-B (EGLF / FAB)
Fri 05:17:59 AM 51.7940 -2.4093 286° West 492 566 28,000  Level FlightAware ADS-B (EGCW)
Fri 05:18:05 AM 51.7986 -2.4353 286° West 491 565 28,000  Level FlightAware ADS-B
Fri 05:18:30 AM 51.8126 -2.5164 285° West 488 562 28,000  Level FlightAware ADS-B (EGCW)
Fri 05:18:37 AM 51.8172 -2.5460 284° West 487 560 28,000  Level FlightAware ADS-B
Fri 05:18:50 AM 51.8243 -2.5940 282° West 485 558 28,000  Level FlightAware ADS-B (EGHH / BOH)
Fri 05:19:07 AM 51.8323 -2.6525 282° West 483 556 28,000  Level FlightAware ADS-B
Fri 05:19:20 AM 51.8383 -2.6978 282° West 483 556 28,000  Level FlightAware ADS-B (EGCW)
Fri 05:19:39 AM 51.8474 -2.7666 282° West 485 558 28,000  Level FlightAware ADS-B (EGDM)
Fri 05:20:10 AM 51.8605 -2.8642 282° West 484 557 28,000  Level FlightAware ADS-B (EGCW)
Fri 05:20:41 AM 51.8763 -2.9833 282° West 480 552 28,000  Level FlightAware ADS-B (EGCW)
Fri 05:21:14 AM 51.8917 -3.0996 282° West 478 550 28,000  Level FlightAware ADS-B
Fri 05:21:44 AM 51.9055 -3.2043 282° West 476 548 28,000  Level FlightAware ADS-B (LKVR)
Fri 05:22:14 AM 51.9192 -3.3086 282° West 478 550 28,000  Level FlightAware ADS-B (LKVR)
Fri 05:22:49 AM 51.9349 -3.4298 282° West 480 552 28,000  Level FlightAware ADS-B (LKVR)
Fri 05:23:19 AM 51.9487 -3.5371 282° West 482 555 28,000  Level FlightAware ADS-B (LKVR)
Fri 05:23:49 AM 51.9622 -3.6430 282° West 483 556 28,000  Level FlightAware ADS-B (LKVR)
Fri 05:24:23 AM 51.9752 -3.7465 281° West 486 559 28,000  Level FlightAware ADS-B (EGCW)
Fri 05:24:54 AM 51.9907 -3.8701 282° West 486 559 28,000  Level FlightAware ADS-B (EGCW)
Fri 05:25:35 AM 52.0084 -4.0128 281° West 485 558 28,000  Level FlightAware ADS-B (EGCW)
Fri 05:25:45 AM 52.0135 -4.0552 280° West 484 557 28,000  Level FlightAware ADS-B (LKVR)
Fri 05:26:14 AM 52.0258 -4.1556 281° West 485 558 28,000  Level FlightAware ADS-B (EGCW)
Fri 05:26:21 AM 52.0290 -4.1819 281° West 485 558 28,000  Level FlightAware ADS-B (EGCW)
Fri 05:26:34 AM 52.0345 -4.2279 281° West 485 558 28,000  Level FlightAware ADS-B
Fri 05:26:44 AM 52.0391 -4.2656 280° West 484 557 28,000  Level FlightAware ADS-B (LKVR)
Fri 05:27:17 AM 52.0531 -4.3817 281° West 484 557 28,000  Level FlightAware ADS-B (EGDX / DGX)
Fri 05:27:48 AM 52.0663 -4.4929 281° West 485 558 28,000  Level FlightAware ADS-B (EGCW)
Fri 05:28:18 AM 52.0785 -4.5956 281° West 487 560 28,000  Level FlightAware ADS-B (EGCW)
Fri 05:28:48 AM 52.0904 -4.6972 281° West 489 563 28,000  Level FlightAware ADS-B (EGCW)
Fri 05:29:19 AM 52.1045 -4.8182 281° West 489 563 28,000  Level FlightAware ADS-B (EGCW)
Fri 05:29:51 AM 52.1178 -4.9334 281° West 489 563 28,000 -86 Level FlightAware ADS-B (EGCW)
Fri 05:30:29 AM 52.1339 -5.0734 281° West 486 559 27,900  Descending FlightAware UK
Fri 05:30:38 AM 52.1367 -5.0996 279° West 484 557 28,000 231 Climbing FlightAware ADS-B
Fri 05:30:55 AM 52.1420 -5.1628 277° West 480 552 28,000  Level FlightAware ADS-B (EGCW)
Fri 05:31:35 AM 52.1476 -5.3064 272° West 471 542 28,000 -79 Level FlightAware ADS-B
Fri 05:32:11 AM 52.1506 -5.4345 272° West 468 539 27,900  Descending FlightAware UK
Fri 05:32:16 AM 52.1507 -5.4497 272° West 468 539 28,000 167 Climbing FlightAware ADS-B
Fri 05:32:47 AM 52.1531 -5.5610 272° West 470 541 28,000  Level FlightAware UK
Fri 05:32:51 AM 52.1508 -5.4536 272° West 470 541 28,000  Level FlightAware ADS-B (EGDX / DGX)
Fri 05:33:47 AM 52.1572 -5.7724 272° West 468 539 28,000  Level FlightAware UK
Fri 05:34:19 AM 52.1593 -5.8802 272° West 467 537 28,000  Level FlightAware ADS-B
Fri 05:34:57 AM 52.1622 -6.0182 272° West 472 543 28,000  Level FlightAware ADS-B
Fri 05:35:39 AM 52.1648 -6.1456 272° West 474 545 28,000  Level FlightAware ADS-B
Fri 05:36:19 AM 52.1677 -6.3063 272° West 473 544 28,000  Level FlightAware ADS-B
Fri 05:36:59 AM 52.1701 -6.4414 272° West 472 543 28,000  Level FlightAware ADS-B
Fri 05:37:37 AM 52.1724 -6.5875 271° West 472 543 28,000  Level FlightAware ADS-B
Fri 05:38:18 AM 52.1744 -6.7295 271° West 466 536 28,000  Level FlightAware ADS-B
Fri 05:38:56 AM 52.1761 -6.8606 271° West 463 533 28,000  Level FlightAware ADS-B (EIDW / DUB)
Fri 05:39:27 AM 52.1774 -6.9609 271° West 470 541 28,000  Level FlightAware ADS-B (EIDW / DUB)
Fri 05:39:29 AM 52.1776 -6.9781 271° West 468 539 28,000  Level FlightAware UK
Fri 05:39:59 AM 52.1788 -7.0849 271° West 476 548 28,000  Level FlightAware UK
Fri 05:40:13 AM 52.1784 -7.0478 271° West 475 547 28,000  Level FlightAware ADS-B
Fri 05:40:50 AM 52.1807 -7.2666 271° West 479 551 28,000  Level FlightAware ADS-B
Fri 05:41:22 AM 52.1818 -7.3824 271° West 479 551 28,000  Level FlightAware ADS-B (EGAA / BFS)
Fri 05:41:55 AM 52.1827 -7.5027 271° West 478 550 28,000  Level FlightAware ADS-B (EGAA / BFS)
Fri 05:42:27 AM 52.1835 -7.6153 271° West 477 549 28,000  Level FlightAware ADS-B (EGAA / BFS)
Fri 05:43:00 AM 52.1842 -7.7359 271° West 473 544 28,000  Level FlightAware ADS-B (EGAA / BFS)
Fri 05:43:30 AM 52.1848 -7.8385 271° West 470 541 28,000  Level FlightAware ADS-B (EGAA / BFS)
Fri 05:44:01 AM 52.1852 -7.9503 270° West 466 536 28,000  Level FlightAware ADS-B (KHQM)
Fri 05:44:31 AM 52.1856 -8.0537 270° West 465 535 28,000  Level FlightAware ADS-B (KHQM)
Fri 05:45:11 AM 52.1858 -8.1824 270° West 462 532 28,000  Level FlightAware ADS-B (KHQM)
Fri 05:45:41 AM 52.1860 -8.2957 270° West 457 526 28,000  Level FlightAware ADS-B (KHQM)
Fri 05:46:21 AM 52.1860 -8.4319 270° West 455 524 28,000  Level FlightAware ADS-B (KHQM)
Fri 05:46:51 AM 52.1859 -8.5348 270° West 455 524 28,000  Level FlightAware ADS-B (KHQM)
Fri 05:47:21 AM 52.1857 -8.6361 270° West 453 521 28,000  Level FlightAware ADS-B (KHQM)
Fri 05:47:51 AM 52.1855 -8.7411 270° West 452 520 28,000  Level FlightAware ADS-B (KHQM)
Fri 05:48:21 AM 52.1852 -8.8425 270° West 451 519 28,000  Level FlightAware ADS-B
Fri 05:48:51 AM 52.1847 -8.9414 270° West 451 519 28,000  Level FlightAware ADS-B (KHQM)
Fri 05:49:24 AM 52.1841 -9.0543 270° West 451 519 28,000  Level FlightAware ADS-B
Fri 05:49:55 AM 52.1835 -9.1547 270° West 450 518 28,000  Level FlightAware ADS-B (KHQM)
Fri 05:50:25 AM 52.1828 -9.2558 269° West 450 518 28,000  Level FlightAware ADS-B (KHQM)
Fri 05:50:55 AM 52.1819 -9.3645 269° West 449 517 28,000  Level FlightAware ADS-B (KHQM)
Fri 05:51:26 AM 52.1810 -9.4670 269° West 449 517 28,000  Level FlightAware ADS-B (KHQM)
Fri 05:51:56 AM 52.1801 -9.5678 269° West 449 517 28,000  Level FlightAware ADS-B (KHQM)
Fri 05:52:27 AM 52.1791 -9.6722 269° West 447 514 28,000 197 Level FlightAware ADS-B (KHQM)
Fri 05:52:57 AM 52.1779 -9.7745 269° West 444 511 28,200 492 Climbing FlightAware ADS-B (KHQM)
Fri 05:53:28 AM 52.1766 -9.8761 269° West 446 513 28,500 590 Climbing FlightAware ADS-B (KHQM)
Fri 05:53:58 AM 52.1752 -9.9775 269° West 449 517 28,800 600 Climbing FlightAware ADS-B (KHQM)
Fri 05:54:38 AM 52.1734 -10.1077 269° West 447 514 29,200 600 Climbing FlightAware ADS-B (KHQM)
Fri 05:55:08 AM 52.1719 -10.2132 269° West 447 514 29,500 563 Climbing FlightAware ADS-B (KHQM)
Fri 05:55:42 AM 52.1701 -10.3209 269° West 450 518 29,800 563 Climbing FlightAware ADS-B (KHQM)
Fri 05:56:12 AM 52.1683 -10.4268 268° West 451 519 30,100 600 Climbing FlightAware ADS-B (KHQM)
Fri 05:56:42 AM 52.1666 -10.5293 268° West 456 525 30,400 608 Climbing FlightAware ADS-B (KHQM)
Fri 05:57:31 AM 52.1633 -10.7002 268° West 462 532 30,900 600 Climbing FlightAware ADS-B (KHQM)
Fri 05:58:02 AM 52.1612 -10.8064 268° West 460 529 31,200 556 Climbing FlightAware ADS-B (KHQM)
Fri 06:02:55 AM 52.1539 -11.1393 267° West 466 536 33,900 64 Climbing FlightAware ADS-B (KHQM)
Fri 06:42:00 AM 53.0000 -20.0000 265° West 472 543 34,000 Climbing ETMS Enhanced Traffic Management System
Fri 06:43:00 AM 51.9486 -19.4000 265° West  Level Estimated
Fri 06:44:00 AM 51.9362 -19.6046 264° West  Level Estimated
Fri 06:45:00 AM 51.9233 -19.8092 264° West  Level Estimated
Fri 06:46:00 AM 51.9101 -20.0136 264° West  Level Estimated
Fri 06:47:00 AM 51.8966 -20.2179 264° West  Level Estimated
Fri 06:48:00 AM 51.8827 -20.4220 264° West  Level Estimated
Fri 06:49:00 AM 52.9050 -21.5156 263° West 472 543 34,000  Level FlightAware Transoceanic
Fri 06:50:00 AM 52.8899 -21.7316 263° West 472 543 34,000  Level FlightAware Transoceanic
Fri 06:51:00 AM 52.8743 -21.9474 263° West 472 543 34,000  Level FlightAware Transoceanic
Fri 06:52:00 AM 52.8584 -22.1630 263° West 472 543 34,000  Level FlightAware Transoceanic
Fri 06:53:00 AM 52.8421 -22.3785 263° West 472 543 34,000  Level FlightAware Transoceanic
Fri 06:54:00 AM 52.8254 -22.5938 263° West 472 543 34,000  Level FlightAware Transoceanic
Fri 06:55:00 AM 52.8083 -22.8090 262° West 472 543 34,000  Level FlightAware Transoceanic
Fri 06:56:00 AM 52.7908 -23.0239 262° West 472 543 34,000  Level FlightAware Transoceanic
Fri 06:57:00 AM 52.7729 -23.2387 262° West 472 543 34,000  Level FlightAware Transoceanic
Fri 06:58:00 AM 52.7547 -23.4534 262° West 472 543 34,000  Level FlightAware Transoceanic
Fri 06:59:00 AM 52.7360 -23.6678 262° West 472 543 34,000  Level FlightAware Transoceanic
Fri 07:00:00 AM 52.7170 -23.8821 262° West 472 543 34,000  Level FlightAware Transoceanic
Fri 07:01:00 AM 52.6976 -24.0961 261° West 472 543 34,000  Level FlightAware Transoceanic
Fri 07:02:00 AM 52.6778 -24.3100 261° West 472 543 34,000  Level FlightAware Transoceanic
Fri 07:03:00 AM 52.6576 -24.5237 261° West 472 543 34,000  Level FlightAware Transoceanic
Fri 07:04:00 AM 52.6370 -24.7372 261° West 472 543 34,000  Level FlightAware Transoceanic
Fri 07:05:00 AM 52.6161 -24.9505 261° West 472 543 34,000  Level FlightAware Transoceanic
Fri 07:06:00 AM 52.5947 -25.1635 261° West 472 543 34,000  Level FlightAware Transoceanic
Fri 07:07:00 AM 52.5730 -25.3764 260° West 472 543 34,000  Level FlightAware Transoceanic
Fri 07:08:00 AM 52.5509 -25.5890 260° West 472 543 34,000  Level FlightAware Transoceanic
Fri 07:09:00 AM 52.5284 -25.8015 260° West 472 543 34,000  Level FlightAware Transoceanic
Fri 07:10:00 AM 52.5056 -26.0137 260° West 472 543 34,000  Level FlightAware Transoceanic
Fri 07:11:00 AM 52.4823 -26.2257 260° West 472 543 34,000  Level FlightAware Transoceanic
Fri 07:12:00 AM 52.4587 -26.4375 260° West 472 543 34,000  Level FlightAware Transoceanic
Fri 07:13:00 AM 52.4347 -26.6490 259° West 472 543 34,000  Level FlightAware Transoceanic
Fri 07:14:00 AM 52.4103 -26.8603 259° West 472 543 34,000  Level FlightAware Transoceanic
Fri 07:15:00 AM 52.3856 -27.0714 259° West 472 543 34,000  Level FlightAware Transoceanic
Fri 07:16:00 AM 52.3605 -27.2822 259° West 472 543 34,000  Level FlightAware Transoceanic
Fri 07:17:00 AM 52.3349 -27.4928 259° West 472 543 34,000  Level FlightAware Transoceanic
Fri 07:18:00 AM 52.3091 -27.7031 259° West 472 543 34,000  Level FlightAware Transoceanic
Fri 07:19:00 AM 52.2828 -27.9132 258° West 472 543 34,000  Level FlightAware Transoceanic
Fri 07:20:00 AM 52.2562 -28.1231 258° West 472 543 34,000  Level FlightAware Transoceanic
Fri 07:21:00 AM 52.2292 -28.3327 258° West 472 543 34,000  Level FlightAware Transoceanic
Fri 07:22:00 AM 52.2019 -28.5420 258° West 472 543 34,000  Level FlightAware Transoceanic
Fri 07:23:00 AM 52.1741 -28.7511 258° West 472 543 34,000  Level FlightAware Transoceanic
Fri 07:24:00 AM 52.1460 -28.9599 258° West 472 543 34,000  Level FlightAware Transoceanic
Fri 07:25:00 AM 52.1175 -29.1685 257° West 472 543 34,000  Level FlightAware Transoceanic
Fri 07:26:00 AM 52.0887 -29.3768 257° West 472 543 34,000  Level FlightAware Transoceanic
Fri 07:27:00 AM 52.0595 -29.5848 257° West 472 543 34,000  Level FlightAware Transoceanic
Fri 07:28:00 AM 52.0299 -29.7925 257° West 472 543 34,000  Level FlightAware Transoceanic
Fri 07:29:00 AM 51.9973 -29.9916 255° West  Level Estimated
Fri 07:30:00 AM 51.9644 -30.1903 255° West  Level Estimated
Fri 07:31:00 AM 51.9312 -30.3888 255° West  Level Estimated
Fri 07:32:00 AM 51.8976 -30.5870 255° West  Level Estimated
Fri 07:33:00 AM 51.8637 -30.7848 255° West  Level Estimated
Fri 07:34:00 AM 51.8294 -30.9824 254° West  Level Estimated
Fri 07:35:00 AM 51.7948 -31.1797 254° West  Level Estimated
Fri 07:36:00 AM 51.7599 -31.3767 254° West  Level Estimated
Fri 07:37:00 AM 51.7247 -31.5733 254° West  Level Estimated
Fri 07:38:00 AM 51.6891 -31.7697 254° West  Level Estimated
Fri 07:39:00 AM 51.6532 -31.9657 254° West  Level Estimated
Fri 07:40:00 AM 51.6170 -32.1615 253° West  Level Estimated
Fri 07:41:00 AM 51.5804 -32.3569 253° West  Level Estimated
Fri 07:42:00 AM 51.5436 -32.5520 253° West  Level Estimated
Fri 07:43:00 AM 51.5064 -32.7468 253° West  Level Estimated
Fri 07:44:00 AM 51.4689 -32.9412 253° West  Level Estimated
Fri 07:45:00 AM 51.4310 -33.1354 253° West  Level Estimated
Fri 07:46:00 AM 51.3929 -33.3292 253° West  Level Estimated
Fri 07:47:00 AM 51.3544 -33.5227 252° West  Level Estimated
Fri 07:48:00 AM 51.3156 -33.7159 252° West  Level Estimated
Fri 07:49:00 AM 51.2765 -33.9087 252° West  Level Estimated
Fri 07:50:00 AM 51.2371 -34.1012 252° West  Level Estimated
Fri 07:51:00 AM 51.1973 -34.2934 252° West  Level Estimated
Fri 07:52:00 AM 51.1573 -34.4853 252° West  Level Estimated
Fri 07:53:00 AM 51.1169 -34.6768 252° West  Level Estimated
Fri 07:54:00 AM 51.0762 -34.8680 251° West  Level Estimated
Fri 07:55:00 AM 51.0352 -35.0588 251° West  Level Estimated
Fri 07:56:00 AM 50.9939 -35.2493 251° West  Level Estimated
Fri 07:57:00 AM 50.9523 -35.4395 251° West  Level Estimated
Fri 07:58:00 AM 50.9104 -35.6293 251° West  Level Estimated
Fri 07:59:00 AM 50.8681 -35.8188 251° West  Level Estimated
Fri 08:00:00 AM 50.8256 -36.0079 250° West  Level Estimated
Fri 08:01:00 AM 50.7828 -36.1967 250° West  Level Estimated
Fri 08:02:00 AM 50.7396 -36.3852 250° West  Level Estimated
Fri 08:03:00 AM 50.6962 -36.5733 250° West  Level Estimated
Fri 08:04:00 AM 50.6524 -36.7610 250° West  Level Estimated
Fri 08:05:00 AM 50.6084 -36.9484 250° West  Level Estimated
Fri 08:06:00 AM 50.5640 -37.1355 250° West  Level Estimated
Fri 08:07:00 AM 50.5194 -37.3222 249° West  Level Estimated
Fri 08:08:00 AM 50.4744 -37.5085 249° West  Level Estimated
Fri 08:09:00 AM 50.4292 -37.6945 249° West  Level Estimated
Fri 08:10:00 AM 50.3836 -37.8801 249° West  Level Estimated
Fri 08:11:00 AM 50.3378 -38.0654 249° West  Level Estimated
Fri 08:12:00 AM 50.2917 -38.2503 249° West  Level Estimated
Fri 08:13:00 AM 50.2453 -38.4348 249° West  Level Estimated
Fri 08:14:00 AM 50.1985 -38.6190 248° West  Level Estimated
Fri 08:15:00 AM 50.1515 -38.8029 248° West  Level Estimated
Fri 08:16:00 AM 50.1042 -38.9863 248° West  Level Estimated
Fri 08:17:00 AM 50.0567 -39.1694 248° West  Level Estimated
Fri 08:18:00 AM 50.0088 -39.3522 248° West  Level Estimated
Fri 08:19:00 AM 49.9606 -39.5346 248° West  Level Estimated
Fri 08:20:00 AM 49.9122 -39.7166 248° West  Level Estimated
Fri 08:21:00 AM 49.8635 -39.8982 247° West  Level Estimated
Fri 08:22:00 AM 49.8145 -40.0795 247° West  Level Estimated
Fri 08:23:00 AM 49.7652 -40.2604 247° West  Level Estimated
Fri 08:24:00 AM 49.7206 -40.4440 249° West  Level FlightAware Approximate
Fri 08:25:00 AM 49.6757 -40.6273 249° West  Level FlightAware Approximate
Fri 08:26:00 AM 49.6305 -40.8103 249° West  Level FlightAware Approximate
Fri 08:27:00 AM 49.5850 -40.9929 249° West  Level FlightAware Approximate
Fri 08:28:00 AM 49.5392 -41.1752 249° West  Level FlightAware Approximate
Fri 08:29:00 AM 49.4932 -41.3571 249° West  Level FlightAware Approximate
Fri 08:30:00 AM 49.4469 -41.5387 249° West  Level FlightAware Approximate
Fri 08:31:00 AM 49.4002 -41.7199 248° West  Level FlightAware Approximate
Fri 08:32:00 AM 49.3533 -41.9008 248° West  Level FlightAware Approximate
Fri 08:33:00 AM 49.3062 -42.0813 248° West  Level FlightAware Approximate
Fri 08:34:00 AM 49.2587 -42.2615 248° West  Level FlightAware Approximate
Fri 08:35:00 AM 49.2110 -42.4414 248° West  Level FlightAware Approximate
Fri 08:36:00 AM 49.1629 -42.6209 248° West  Level FlightAware Approximate
Fri 08:37:00 AM 49.1147 -42.8000 248° West  Level FlightAware Approximate
Fri 08:38:00 AM 49.0661 -42.9789 248° West  Level FlightAware Approximate
Fri 08:39:00 AM 49.0172 -43.1573 247° West  Level FlightAware Approximate
Fri 08:40:00 AM 48.9681 -43.3354 247° West  Level FlightAware Approximate
Fri 08:41:00 AM 48.9187 -43.5132 247° West  Level FlightAware Approximate
Fri 08:42:00 AM 48.8690 -43.6906 247° West  Level FlightAware Approximate
Fri 08:43:00 AM 48.8191 -43.8676 247° West  Level FlightAware Approximate
Fri 08:44:00 AM 48.7689 -44.0443 247° West  Level FlightAware Approximate
Fri 08:45:00 AM 48.7184 -44.2207 247° West  Level FlightAware Approximate
Fri 08:46:00 AM 48.6676 -44.3966 246° West  Level FlightAware Approximate
Fri 08:47:00 AM 48.6166 -44.5723 246° West  Level FlightAware Approximate
Fri 08:48:00 AM 48.5653 -44.7476 246° West  Level FlightAware Approximate
Fri 08:49:00 AM 48.5138 -44.9225 246° West  Level FlightAware Approximate
Fri 08:50:00 AM 48.4620 -45.0970 246° West  Level FlightAware Approximate
Fri 08:51:00 AM 48.4099 -45.2713 246° West  Level FlightAware Approximate
Fri 08:52:00 AM 48.3576 -45.4451 246° West  Level FlightAware Approximate
Fri 08:53:00 AM 48.3050 -45.6186 246° West  Level FlightAware Approximate
Fri 08:54:00 AM 48.2521 -45.7917 245° Southwest  Level FlightAware Approximate
Fri 08:55:00 AM 48.1990 -45.9645 245° Southwest  Level FlightAware Approximate
Fri 08:56:00 AM 48.1456 -46.1369 245° Southwest  Level FlightAware Approximate
Fri 08:57:00 AM 48.0920 -46.3090 245° Southwest  Level FlightAware Approximate
Fri 08:58:00 AM 48.0381 -46.4807 245° Southwest  Level FlightAware Approximate
Fri 08:59:00 AM 47.9839 -46.6520 245° Southwest  Level FlightAware Approximate
Fri 09:00:00 AM 47.9295 -46.8230 245° Southwest  Level FlightAware Approximate
Fri 09:01:00 AM 47.8749 -46.9936 245° Southwest  Level FlightAware Approximate
Fri 09:02:00 AM 47.8200 -47.1639 244° Southwest  Level FlightAware Approximate
Fri 09:03:00 AM 47.7648 -47.3338 244° Southwest  Level FlightAware Approximate
Fri 09:04:00 AM 47.7094 -47.5033 244° Southwest  Level FlightAware Approximate
Fri 09:05:00 AM 47.6537 -47.6725 244° Southwest  Level FlightAware Approximate
Fri 09:06:00 AM 47.5978 -47.8413 244° Southwest  Level FlightAware Approximate
Fri 09:07:00 AM 47.5417 -48.0098 244° Southwest  Level FlightAware Approximate
Fri 09:08:00 AM 47.4853 -48.1778 244° Southwest  Level FlightAware Approximate
Fri 09:09:00 AM 47.4286 -48.3456 244° Southwest  Level FlightAware Approximate
Fri 09:10:00 AM 47.3717 -48.5129 243° Southwest  Level FlightAware Approximate
Fri 09:11:00 AM 47.3146 -48.6800 243° Southwest  Level FlightAware Approximate
Fri 09:12:00 AM 47.2572 -48.8466 243° Southwest  Level FlightAware Approximate
Fri 09:13:00 AM 47.1996 -49.0129 243° Southwest  Level FlightAware Approximate
Fri 09:14:00 AM 47.1418 -49.1788 243° Southwest  Level FlightAware Approximate
Fri 09:15:00 AM 47.0837 -49.3444 243° Southwest  Level FlightAware Approximate
Fri 09:16:00 AM 47.0253 -49.5096 243° Southwest  Level FlightAware Approximate
Fri 09:17:00 AM 46.9668 -49.6744 243° Southwest  Level FlightAware Approximate
Fri 09:18:00 AM 46.9080 -49.8389 242° Southwest  Level FlightAware Approximate
Fri 09:19:00 AM 46.8483 -50.0050 243° Southwest  Level FlightAware Approximate
Fri 09:20:00 AM 46.7913 -50.1705 243° Southwest  Level FlightAware Approximate
Fri 09:21:00 AM 46.7340 -50.3356 243° Southwest  Level FlightAware Approximate
Fri 09:22:00 AM 46.6765 -50.5004 243° Southwest  Level FlightAware Approximate
Fri 09:23:00 AM 46.6188 -50.6648 243° Southwest  Level FlightAware Approximate
Fri 09:23:25 AM 47.1000 -49.6333 242° Southwest 520 598 34,000  Level Gander Center
Fri 09:24:00 AM 46.5608 -50.8288 243° Southwest  Level FlightAware Approximate
Fri 09:24:25 AM 47.0333 -49.8167 242° Southwest 520 598 34,000  Level Gander Center
Fri 09:25:00 AM 46.5027 -50.9925 243° Southwest  Level FlightAware Approximate
Fri 09:25:25 AM 46.9667 -50.0000 242° Southwest 510 587 34,000  Level Gander Center
Fri 09:26:00 AM 46.4439 -51.1557 242° Southwest  Level FlightAware Approximate
Fri 09:26:25 AM 46.9500 -50.2333 264° West 520 598 34,000  Level Gander Center
Fri 09:27:00 AM 46.3849 -51.3184 242° Southwest  Level FlightAware Approximate
Fri 09:27:25 AM 46.9333 -50.4333 263° West 520 598 35,200  Level Gander Center
Fri 09:28:00 AM 46.3257 -51.4808 242° Southwest  Level FlightAware Approximate
Fri 09:28:25 AM 46.8833 -50.6167 248° West 510 587 36,000  Level Gander Center
Fri 09:29:25 AM 46.8167 -50.8000 242° Southwest 520 598 36,000  Level Gander Center
Fri 09:30:25 AM 46.7500 -50.9833 242° Southwest 520 598 36,000  Level Gander Center
Fri 09:31:25 AM 46.6833 -51.1833 244° Southwest 520 598 36,000  Level Gander Center
Fri 09:32:25 AM 46.6167 -51.3667 242° Southwest 520 598 36,000  Level Gander Center
Fri 09:33:25 AM 46.5667 -51.5333 246° West 510 587 36,000  Level Gander Center
Fri 09:34:25 AM 46.4833 -51.7333 239° Southwest 520 598 36,000  Level Gander Center
Fri 09:35:25 AM 46.4333 -51.9167 248° West 520 598 36,000  Level Gander Center
Fri 09:36:36 AM 46.3500 -52.1333 241° Southwest 520 598 36,000  Level Moncton Center
Fri 09:37:36 AM 46.2667 -52.3333 239° Southwest 520 598 36,000  Level Moncton Center
Fri 09:38:36 AM 46.2000 -52.5000 240° Southwest 520 598 36,000  Level Moncton Center
Fri 09:39:36 AM 46.1333 -52.6833 242° Southwest 520 598 36,000  Level Moncton Center
Fri 09:40:36 AM 46.0500 -52.8667 237° Southwest 510 587 36,000  Level Moncton Center
Fri 09:41:36 AM 45.9833 -53.0333 240° Southwest 510 587 36,000  Level Moncton Center
Fri 09:42:24 AM 45.9500 -53.1833 252° West 510 587 36,000  Level Gander Center
Fri 09:43:24 AM 45.8667 -53.3667 237° Southwest 510 587 36,000  Level Gander Center
Fri 09:44:24 AM 45.8000 -53.5500 243° Southwest 510 587 36,000  Level Gander Center
Fri 09:45:36 AM 45.7167 -53.7667 241° Southwest 510 587 36,000  Level Moncton Center
Fri 09:46:36 AM 45.6500 -53.9167 238° Southwest 510 587 36,000  Level Moncton Center
Fri 09:47:36 AM 45.5667 -54.1000 237° Southwest 510 587 36,000  Level Moncton Center
Fri 09:48:36 AM 45.5000 -54.2833 243° Southwest 510 587 36,000  Level Moncton Center
Fri 09:49:36 AM 45.4333 -54.4333 238° Southwest 510 587 36,000  Level Moncton Center
Fri 09:50:36 AM 45.3667 -54.6167 243° Southwest 510 587 36,000  Level Moncton Center
Fri 09:51:36 AM 45.3000 -54.8000 243° Southwest 510 587 36,000  Level Moncton Center
Fri 09:52:36 AM 45.2333 -54.9833 243° Southwest 510 587 36,000  Level Moncton Center
Fri 09:53:36 AM 45.1500 -55.1333 232° Southwest 510 587 36,000  Level Moncton Center
Fri 09:54:36 AM 45.0833 -55.3333 245° Southwest 500 575 36,000  Level Moncton Center
Fri 09:55:36 AM 45.0167 -55.4833 238° Southwest 510 587 36,000  Level Moncton Center
Fri 09:56:36 AM 44.9333 -55.6667 237° Southwest 510 587 36,000  Level Moncton Center
Fri 09:57:36 AM 44.8667 -55.8500 243° Southwest 510 587 36,000  Level Moncton Center
Fri 09:58:36 AM 44.7833 -56.0000 232° Southwest 510 587 36,000  Level Moncton Center
Fri 09:59:36 AM 44.7167 -56.1833 243° Southwest 500 575 36,000  Level Moncton Center
Fri 10:00:36 AM 44.6500 -56.3500 241° Southwest 510 587 36,000  Level Moncton Center
Fri 10:01:36 AM 44.5667 -56.5000 232° Southwest 500 575 36,000  Level Moncton Center
Fri 10:02:36 AM 44.5000 -56.6833 243° Southwest 510 587 36,000  Level Moncton Center
Fri 10:03:36 AM 44.4333 -56.8500 241° Southwest 500 575 36,000  Level Moncton Center
Fri 10:04:36 AM 44.3667 -57.0333 243° Southwest 510 587 36,000  Level Moncton Center
Fri 10:05:36 AM 44.2833 -57.1833 232° Southwest 500 575 36,000  Level Moncton Center
Fri 10:06:36 AM 44.2000 -57.3500 235° Southwest 510 587 36,000  Level Moncton Center
Fri 10:07:36 AM 44.1167 -57.5167 235° Southwest 510 587 36,000  Level Moncton Center
Fri 10:08:36 AM 44.0667 -57.6667 245° Southwest 510 587 36,000  Level Moncton Center
Fri 10:09:36 AM 43.9667 -57.8500 233° Southwest 510 587 36,000  Level Moncton Center
Fri 10:10:36 AM 43.9000 -58.0167 241° Southwest 510 587 36,000  Level Moncton Center
Fri 10:11:36 AM 43.8333 -58.1833 241° Southwest 510 587 36,000  Level Moncton Center
Fri 10:12:36 AM 43.7500 -58.3333 232° Southwest 500 575 36,000  Level Moncton Center
Fri 10:13:36 AM 43.6833 -58.5000 241° Southwest 510 587 36,000  Level Moncton Center
Fri 10:14:36 AM 43.6000 -58.6667 235° Southwest 500 575 36,000  Level Moncton Center
Fri 10:15:36 AM 43.5333 -58.8167 239° Southwest 510 587 36,000  Level Moncton Center
Fri 10:16:36 AM 43.4333 -58.9833 230° Southwest 500 575 36,000  Level Moncton Center
Fri 10:17:36 AM 43.3833 -59.1500 248° West 510 587 36,000  Level Moncton Center
Fri 10:18:36 AM 43.2833 -59.3167 231° Southwest 500 575 36,000  Level Moncton Center
Fri 10:19:36 AM 43.2167 -59.4667 239° Southwest 490 564 36,000  Level Moncton Center
Fri 10:20:36 AM 43.1333 -59.6333 236° Southwest 500 575 36,000  Level Moncton Center
Fri 10:21:36 AM 43.0667 -59.7833 239° Southwest 490 564 36,000  Level Moncton Center
Fri 10:22:36 AM 43.0000 -59.9500 241° Southwest 480 552 36,000  Level Moncton Center
Fri 10:23:36 AM 42.9167 -60.0833 230° Southwest 490 564 36,000  Level Moncton Center
Fri 10:24:36 AM 42.8333 -60.2500 236° Southwest 480 552 36,000  Level Moncton Center
Fri 10:25:36 AM 42.7667 -60.4000 239° Southwest 490 564 36,000  Level Moncton Center
Fri 10:26:36 AM 42.6833 -60.5500 233° Southwest 490 564 36,000  Level Moncton Center
Fri 10:27:36 AM 42.6000 -60.7000 233° Southwest 490 564 36,000  Level Moncton Center
Fri 10:28:36 AM 42.5500 -60.8667 248° West 500 575 36,000  Level Moncton Center
Fri 10:29:36 AM 42.4500 -61.0333 231° Southwest 500 575 36,000  Level Moncton Center
Fri 10:30:24 AM 42.4000 -61.1500 234° Southwest 500 575 36,000  Level Gander Center
Fri 10:30:36 AM 42.3667 -61.1667 230° Southwest 500 575 36,000  Level Moncton Center
Fri 10:30:47 AM 42.3833 -61.2000 234° Southwest 492 566 36,000  Level New York Oceanic (ODAPS)
Fri 10:31:31 AM 42.3000 -61.3167 234° Southwest 488 562 36,000  Level New York Oceanic (ODAPS)
Fri 10:31:36 AM 42.2833 -61.3333 229° Southwest 500 575 36,000  Level Moncton Center
Fri 10:32:36 AM 42.2000 -61.4500 234° Southwest 500 575 36,000  Level Moncton Center
Fri 10:33:36 AM 42.1000 -61.6167 231° Southwest 500 575 36,000  Level Moncton Center
Fri 10:34:36 AM 42.0167 -61.7500 230° Southwest 500 575 36,000  Level Moncton Center
Fri 10:35:36 AM 41.9333 -61.8833 230° Southwest 490 564 36,000  Level Moncton Center
Fri 10:36:36 AM 41.8333 -62.0167 225° Southwest 480 552 36,000  Level Moncton Center
Fri 10:37:36 AM 41.7500 -62.1667 233° Southwest 490 564 36,000  Level Moncton Center
Fri 10:38:36 AM 41.6667 -62.3000 230° Southwest 490 564 36,000  Level Moncton Center
Fri 10:39:36 AM 41.5667 -62.4333 225° Southwest 490 564 36,000  Level Moncton Center
Fri 10:41:36 AM 41.3833 -62.7000 228° Southwest 490 564 36,000  Level Moncton Center
Fri 10:41:47 AM 41.4500 -62.6500 233° Southwest 479 551 36,000  Level New York Oceanic (ODAPS)
Fri 10:42:36 AM 41.3000 -62.8500 233° Southwest 480 552 36,000  Level Moncton Center
Fri 10:43:36 AM 41.2000 -62.9833 225° Southwest 490 564 36,000  Level Moncton Center
Fri 10:44:36 AM 41.1167 -63.1167 230° Southwest 480 552 36,000  Level Moncton Center
Fri 10:45:36 AM 41.0500 -63.2500 236° Southwest 480 552 36,000  Level Moncton Center
Fri 10:46:36 AM 40.9500 -63.3833 225° Southwest 490 564 36,000  Level Moncton Center
Fri 10:47:36 AM 40.8667 -63.5167 230° Southwest 480 552 36,000  Level Moncton Center
Fri 10:50:49 AM 40.5833 -63.9333 233° Southwest 494 568 36,000  Level New York Oceanic (ODAPS)
Fri 11:00:33 AM 39.7167 -65.1833 233° Southwest 474 545 36,000  Level New York Oceanic (ODAPS)
Fri 11:09:58 AM 38.8500 -66.3833 234° Southwest 469 540 36,000  Level New York Oceanic (ODAPS)
Fri 11:12:23 AM 38.6333 -66.6667 234° Southwest 465 535 36,000  Level New York Oceanic (ODAPS)
Fri 11:19:30 AM 38.0833 -67.6167 233° Southwest 459 528 36,000  Level New York Oceanic (ODAPS)
Fri 11:30:26 AM 37.3500 -68.8500 232° Southwest 455 524 36,000  Level New York Oceanic (ODAPS)
Fri 11:30:41 AM 37.2667 -68.9667 233° Southwest 456 525 36,000  Level New York Oceanic (ODAPS)
Fri 11:38:46 AM 36.6000 -70.0500 232° Southwest 451 519 36,000  Level New York Oceanic (ODAPS)
Fri 11:48:23 AM 35.8500 -71.2000 231° Southwest 438 504 36,000  Level New York Oceanic (ODAPS)
Fri 11:51:14 AM 35.6333 -71.5333 231° Southwest 443 510 36,000  Level New York Oceanic (ODAPS)
Fri 12:01:41 PM 34.8228 -72.7406 230° Southwest 473 544 36,000  Level New York Center
Fri 12:02:00 PM 34.8156 -72.7640 230° Southwest 443 510 36,000  Level FlightAware Transoceanic
Fri 12:02:42 PM 34.7497 -72.8500 231° Southwest 459 528 36,000  Level New York Center
Fri 12:03:00 PM 34.7373 -72.8794 230° Southwest 443 510 36,000  Level FlightAware Transoceanic
Fri 12:03:41 PM 34.6622 -72.9686 228° Southwest 451 519 36,000  Level New York Center
Fri 12:04:00 PM 34.6589 -72.9945 230° Southwest 443 510 36,000 -97 Level FlightAware Transoceanic
Fri 12:04:43 PM 34.5911 -73.0728 230° Southwest 438 504 35,900  Descending New York Center
Fri 12:05:00 PM 34.5803 -73.1094 230° Southwest 443 510 36,000 105 Climbing FlightAware Transoceanic
Fri 12:05:40 PM 34.5075 -73.1911 229° Southwest 448 516 36,000 -59 Level New York Center
Fri 12:06:41 PM 34.4300 -73.3044 230° Southwest 448 516 35,900 -49 Descending New York Center
Fri 12:07:42 PM 34.3481 -73.4175 229° Southwest 448 516 35,900 50 Level New York Center
Fri 12:08:41 PM 34.2683 -73.5281 229° Southwest 448 516 36,000 50 Climbing New York Center
Fri 12:09:41 PM 34.1906 -73.6383 230° Southwest 448 516 36,000  Level New York Center
Fri 12:10:42 PM 34.1042 -73.7581 229° Southwest 453 521 36,000 -50 Level New York Center
Fri 12:11:40 PM 34.0261 -73.8703 230° Southwest 448 516 35,900  Descending New York Center
Fri 12:12:42 PM 33.9333 -73.9917 227° Southwest 473 544 36,000 50 Climbing New York Center
Fri 12:13:40 PM 33.8592 -74.1064 232° Southwest 466 536 36,000 -50 Level New York Center
Fri 12:14:42 PM 33.7744 -74.2178 228° Southwest 461 531 35,900 -50 Descending New York Center
Fri 12:15:41 PM 33.6981 -74.3292 231° Southwest 461 531 35,900  Level New York Center
Fri 12:16:41 PM 33.6153 -74.4428 229° Southwest 456 525 35,900  Level New York Center
Fri 12:17:41 PM 33.5325 -74.5533 228° Southwest 451 519 35,900  Level New York Center
Fri 12:18:43 PM 33.4622 -74.6672 234° Southwest 444 511 35,900 50 Level New York Center
Fri 12:19:40 PM 33.3750 -74.7772 226° Southwest 444 511 36,000  Climbing New York Center
Fri 12:20:42 PM 33.2917 -74.8922 229° Southwest 444 511 35,900 -49 Descending New York Center
Fri 12:21:43 PM 33.2211 -75.0028 233° Southwest 444 511 35,900 50 Level New York Center
Fri 12:22:41 PM 33.1356 -75.1150 228° Southwest 444 511 36,000 51 Climbing New York Center
Fri 12:23:41 PM 33.0583 -75.2272 231° Southwest 439 505 36,000 -50 Level New York Center
Fri 12:24:41 PM 32.9814 -75.3344 229° Southwest 445 512 35,900  Descending New York Center
Fri 12:25:41 PM 32.8997 -75.4436 228° Southwest 445 512 36,000  Climbing New York Center
Fri 12:26:42 PM 32.8225 -75.5528 230° Southwest 444 511 35,900  Descending New York Center
Fri 12:27:41 PM 32.7453 -75.6567 229° Southwest 444 511 36,000 203 Climbing New York Center
Fri 12:28:40 PM 32.6497 -75.7447 218° Southwest 439 505 36,300 298 Climbing New York Center
Fri 12:29:42 PM 32.5461 -75.8297 215° Southwest 444 511 36,600 344 Climbing New York Center
Fri 12:30:42 PM 32.4469 -75.9022 212° Southwest 449 517 37,000 203 Climbing New York Center
Fri 12:31:40 PM 32.3394 -75.9817 212° Southwest 441 507 37,000  Level New York Center
Fri 12:32:41 PM 32.2336 -76.0608 212° Southwest 449 517 37,000  Level New York Center
Fri 12:33:41 PM 32.1481 -76.1558 223° Southwest 449 517 37,000  Level New York Center
Fri 12:34:43 PM 32.0736 -76.2758 234° Southwest 440 506 37,000 -50 Level New York Center
Fri 12:35:40 PM 32.0081 -76.3867 235° Southwest 440 506 36,900 -226 Descending New York Center
Fri 12:37:22 PM 31.8872 -76.6053 237° Southwest 437 503 36,400 -296 Descending Jacksonville Center
Fri 12:38:22 PM 31.8200 -76.7247 237° Southwest 442 509 36,100 -250 Descending Jacksonville Center
Fri 12:39:22 PM 31.7489 -76.8492 236° Southwest 449 517 35,900 -50 Descending Jacksonville Center
Fri 12:40:22 PM 31.6814 -76.9683 236° Southwest 450 518 36,000  Climbing Jacksonville Center
Fri 12:41:22 PM 31.6181 -77.0844 237° Southwest 450 518 35,900 -50 Descending Jacksonville Center
Fri 12:42:22 PM 31.5506 -77.2056 237° Southwest 450 518 35,900 -300 Level Jacksonville Center
Fri 12:43:22 PM 31.4864 -77.3142 235° Southwest 450 518 35,300 -900 Descending Jacksonville Center
Fri 12:44:22 PM 31.4189 -77.4425 238° Southwest 449 517 34,100 -700 Descending Jacksonville Center
Fri 12:45:22 PM 31.3531 -77.5606 237° Southwest 449 517 33,900 -50 Descending Jacksonville Center
Fri 12:46:22 PM 31.2911 -77.6758 238° Southwest 444 511 34,000  Climbing Jacksonville Center
Fri 12:47:22 PM 31.2231 -77.8036 238° Southwest 444 511 33,900  Descending Jacksonville Center
Fri 12:48:22 PM 31.1500 -77.9069 230° Southwest 440 506 34,000  Climbing Jacksonville Center
Fri 12:49:22 PM 31.0772 -78.0247 234° Southwest 447 514 33,900  Descending Jacksonville Center
Fri 12:50:22 PM 30.9983 -78.1403 231° Southwest 448 516 34,000 50 Climbing Jacksonville Center
Fri 12:51:22 PM 30.9314 -78.2528 235° Southwest 454 522 34,000  Level Jacksonville Center
Fri 12:52:22 PM 30.8561 -78.3653 232° Southwest 448 516 34,000  Level Jacksonville Center
Fri 12:53:22 PM 30.7808 -78.4775 232° Southwest 448 516 34,000 -50 Level Jacksonville Center
Fri 12:54:22 PM 30.7072 -78.5872 232° Southwest 448 516 33,900  Descending Jacksonville Center
Fri 12:55:22 PM 30.6211 -78.6903 226° Southwest 448 516 34,000  Climbing Jacksonville Center
Fri 12:56:22 PM 30.5008 -78.7219 193° South 427 491 33,900  Descending Jacksonville Center
Fri 12:57:42 PM 30.3492 -78.7447 187° South 450 518 34,000  Climbing Miami Center
Fri 12:58:42 PM 30.2197 -78.7689 189° South 466 536 33,900  Descending Miami Center
Fri 12:59:42 PM 30.0900 -78.7906 188° South 471 542 34,000 50 Climbing Miami Center
Fri 01:00:42 PM 29.9542 -78.8217 191° South 466 536 34,000 -50 Level Miami Center
Fri 01:01:42 PM 29.8244 -78.8433 188° South 466 536 33,900  Descending Miami Center
Fri 01:02:42 PM 29.6950 -78.8575 185° South 471 542 34,000 50 Climbing Miami Center
Fri 01:03:42 PM 29.5697 -78.8767 188° South 471 542 34,000 -50 Level Miami Center
Fri 01:04:42 PM 29.4422 -78.8933 186° South 466 536 33,900  Descending Miami Center
Fri 01:05:42 PM 29.3106 -78.9078 185° South 466 536 34,000 50 Climbing Miami Center
Fri 01:06:42 PM 29.1789 -78.9242 186° South 466 536 34,000  Level Miami Center
Fri 01:07:42 PM 29.0556 -78.9456 189° South 465 535 34,000 -50 Level Miami Center
Fri 01:08:42 PM 28.9239 -78.9597 185° South 465 535 33,900  Descending Miami Center
Fri 01:12:52 PM 28.3793 -79.0303 187° South 465 535 34,000 21 Climbing FlightAware ADS-B
Fri 01:13:33 PM 28.2950 -79.0496 195° South 459 528 34,000  Level FlightAware ADS-B
Fri 01:14:10 PM 28.2376 -79.0670 195° South 459 528 34,000 -371 Level FlightAware ADS-B
Fri 01:15:10 PM 28.0983 -79.1104 195° South 465 535 33,400 -694 Descending FlightAware ADS-B
Fri 01:16:11 PM 27.9677 -79.1504 195° South 468 539 32,600 -872 Descending FlightAware ADS-B
Fri 01:17:07 PM 27.8560 -79.1843 195° South 470 541 31,700 -1,456 Descending FlightAware ADS-B
Fri 01:17:54 PM 27.7533 -79.2155 195° South 456 525 30,100 -1,456 Descending FlightAware ADS-B
Fri 01:18:50 PM 27.6404 -79.2500 195° South 447 514 29,200 -1,250 Descending FlightAware ADS-B
Fri 01:19:30 PM 27.5584 -79.2747 195° South 438 504 28,100 -1,630 Descending FlightAware ADS-B
Fri 01:20:11 PM 27.4822 -79.2980 195° South 436 502 27,000 -1,697 Descending FlightAware ADS-B
Fri 01:21:09 PM 27.3663 -79.3331 195° South 428 493 25,300 -1,324 Descending FlightAware ADS-B
Fri 01:22:27 PM 27.2220 -79.3766 195° South 408 470 24,000 -793 Descending FlightAware ADS-B
Fri 01:23:10 PM 27.1488 -79.3988 195° South 416 479 23,700 -560 Descending FlightAware ADS-B
Fri 01:23:42 PM 27.0983 -79.4139 195° South 423 487 23,300 -978 Descending Miami Center
Fri 01:24:42 PM 26.9911 -79.4514 197° South 418 481 22,200 -1,200 Descending Miami Center
Fri 01:25:42 PM 26.8792 -79.5117 206° Southwest 412 474 20,900 -1,000 Descending Miami Center
Fri 01:26:42 PM 26.7800 -79.5675 207° Southwest 400 460 20,200 -763 Descending Miami Center
Fri 01:33:34 PM 26.2278 -80.0228 207° Southwest 347 399 14,900 -889 Descending Miami Center
Fri 01:34:41 PM 26.1206 -80.0522 194° South 340 391 13,100 -1,547 Descending Miami Center
Fri 01:35:42 PM 26.0281 -80.0800 195° South 336 387 11,600 -1,397 Descending Miami Center
Fri 01:36:37 PM 25.9542 -80.1150 203° Southwest 324 373 10,400 -923 Descending Miami Center
Fri 01:37:39 PM 25.9231 -80.1972 247° West 287 330 9,800 -683 Descending Miami Center
Fri 01:38:40 PM 25.9147 -80.2869 264° West 270 311 9,000 -1,082 Descending Miami Center
Fri 01:39:41 PM 25.9089 -80.3631 265° West 240 276 7,600 -1,623 Descending Miami Center
Fri 01:40:42 PM 25.9008 -80.4322 263° West 211 243 5,700 -1,463 Descending Miami Center
Fri 01:41:44 PM 25.8664 -80.4750 228° Southwest 201 231 4,600 -1,463 Descending Miami Center
Fri 01:42:45 PM 25.8189 -80.4506 155° Southeast 196 226 2,700 -1,377 Descending Miami Center
Fri 01:43:46 PM 25.8014 -80.3969 110° East 185 213 1,800 -927 Descending Miami Center
Fri 01:44:48 PM 25.7986 -80.3414 93° East 160 184 800 -968 Descending Miami Center

Login

Don't have an account? Register now (free) for customized features, flight alerts, and more!